ITY2015 NVVV-NWWW
Flight info
| Callsign | ITY2015 |
|---|---|
| Flight time | 0h 49m |
| Altitude | 36000 |
| Route | LEDIT B590 NIPOG DCT LECNA DCT SARAM DCT TOSAM |
| Aircraft | B738/M-SDE2E3FGHIRWXY/LB1 |
Departure
| Time | 2026-04-22 17:32 |
|---|---|
| Airport | Bauerfield International Airport (NVVV) |
Arrival
| Time | 2026-04-22 18:21 |
|---|---|
| Airport | La Tontouta International Airport (NWWW) |
| Time | Latitude | Longitude | Altitude | Speed | Heading |
|---|---|---|---|---|---|
| 2026-04-22 16:53 | -17.70106 | 168.31971 | 68 ft | 0 kts | 253° |
| 2026-04-22 17:13 | -17.70106 | 168.31972 | 69 ft | 0 kts | 253° |
| 2026-04-22 17:24 | -17.70105 | 168.31972 | 69 ft | 0 kts | 253° |
| 2026-04-22 17:24 | -17.70105 | 168.31966 | 61 ft | 2 kts | 278° |
| 2026-04-22 17:24 | -17.70091 | 168.31954 | 66 ft | 3 kts | 334° |
| 2026-04-22 17:24 | -17.70069 | 168.31957 | 64 ft | 4 kts | 26° |
| 2026-04-22 17:25 | -17.70044 | 168.31955 | 68 ft | 4 kts | 333° |
| 2026-04-22 17:25 | -17.70030 | 168.31935 | 70 ft | 0 kts | 298° |
| 2026-04-22 17:25 | -17.70020 | 168.31929 | 70 ft | 0 kts | 338° |
| 2026-04-22 17:25 | -17.70004 | 168.31929 | 61 ft | 2 kts | 358° |
| 2026-04-22 17:26 | -17.69988 | 168.31932 | 68 ft | 3 kts | 17° |
| 2026-04-22 17:26 | -17.69943 | 168.31947 | 63 ft | 6 kts | 9° |
| 2026-04-22 17:26 | -17.69914 | 168.31934 | 67 ft | 6 kts | 321° |
| 2026-04-22 17:26 | -17.69889 | 168.31888 | 64 ft | 9 kts | 296° |
| 2026-04-22 17:27 | -17.69868 | 168.31843 | 66 ft | 11 kts | 296° |
| 2026-04-22 17:27 | -17.69807 | 168.31727 | 68 ft | 17 kts | 300° |
| 2026-04-22 17:27 | -17.69748 | 168.31609 | 67 ft | 19 kts | 297° |
| 2026-04-22 17:27 | -17.69687 | 168.31489 | 67 ft | 18 kts | 298° |
| 2026-04-22 17:28 | -17.69629 | 168.31374 | 63 ft | 18 kts | 298° |
| 2026-04-22 17:28 | -17.69573 | 168.31262 | 62 ft | 17 kts | 298° |
| 2026-04-22 17:28 | -17.69519 | 168.31154 | 60 ft | 16 kts | 298° |
| 2026-04-22 17:28 | -17.69466 | 168.31051 | 59 ft | 16 kts | 298° |
| 2026-04-22 17:29 | -17.69415 | 168.30951 | 58 ft | 15 kts | 298° |
| 2026-04-22 17:29 | -17.69383 | 168.30888 | 60 ft | 14 kts | 298° |
| 2026-04-22 17:29 | -17.69324 | 168.30816 | 61 ft | 13 kts | 326° |
| 2026-04-22 17:29 | -17.69247 | 168.30736 | 56 ft | 12 kts | 298° |
| 2026-04-22 17:30 | -17.69238 | 168.30697 | 58 ft | 2 kts | 253° |
| 2026-04-22 17:30 | -17.69255 | 168.30678 | 60 ft | 6 kts | 215° |
| 2026-04-22 17:30 | -17.69294 | 168.30683 | 59 ft | 6 kts | 140° |
| 2026-04-22 17:30 | -17.69306 | 168.30720 | 58 ft | 5 kts | 90° |
| 2026-04-22 17:31 | -17.69312 | 168.30746 | 62 ft | 0 kts | 116° |
| 2026-04-22 17:31 | -17.69427 | 168.30974 | 58 ft | 81 kts | 118° |
| 2026-04-22 17:31 | -17.69750 | 168.31613 | 66 ft | 114 kts | 117° |
| 2026-04-22 17:32 | -17.70228 | 168.32571 | 171 ft | 176 kts | 116° |
| 2026-04-22 17:32 | -17.70779 | 168.33704 | 1368 ft | 165 kts | 120° |
| 2026-04-22 17:32 | -17.71594 | 168.34484 | 2550 ft | 167 kts | 159° |
| 2026-04-22 17:32 | -17.72848 | 168.34423 | 2987 ft | 205 kts | 198° |
| 2026-04-22 17:33 | -17.74196 | 168.33669 | 3304 ft | 234 kts | 207° |
| 2026-04-22 17:33 | -17.75638 | 168.32769 | 3707 ft | 254 kts | 207° |
| 2026-04-22 17:33 | -17.77235 | 168.31764 | 4137 ft | 277 kts | 208° |
| 2026-04-22 17:33 | -17.78883 | 168.30723 | 5133 ft | 278 kts | 210° |
| 2026-04-22 17:34 | -17.80546 | 168.29675 | 6109 ft | 280 kts | 211° |
| 2026-04-22 17:34 | -17.82225 | 168.28622 | 7017 ft | 282 kts | 212° |
| 2026-04-22 17:34 | -17.83915 | 168.27566 | 7937 ft | 283 kts | 213° |
| 2026-04-22 17:34 | -17.85619 | 168.26504 | 8821 ft | 287 kts | 213° |
| 2026-04-22 17:35 | -17.87345 | 168.25430 | 9714 ft | 290 kts | 213° |
| 2026-04-22 17:35 | -17.89105 | 168.24337 | 10440 ft | 299 kts | 213° |
| 2026-04-22 17:35 | -17.90977 | 168.23171 | 10655 ft | 326 kts | 213° |
| 2026-04-22 17:35 | -17.93001 | 168.21911 | 10838 ft | 350 kts | 213° |
| 2026-04-22 17:36 | -17.95152 | 168.20576 | 11226 ft | 364 kts | 213° |
| 2026-04-22 17:36 | -17.97356 | 168.19212 | 11844 ft | 370 kts | 213° |
| 2026-04-22 17:36 | -17.99557 | 168.17852 | 12546 ft | 373 kts | 213° |
| 2026-04-22 17:36 | -18.01812 | 168.16458 | 13236 ft | 377 kts | 213° |
| 2026-04-22 17:37 | -18.04085 | 168.15051 | 13881 ft | 381 kts | 213° |
| 2026-04-22 17:37 | -18.06380 | 168.13629 | 14464 ft | 385 kts | 213° |
| 2026-04-22 17:37 | -18.08695 | 168.12194 | 15050 ft | 389 kts | 214° |
| 2026-04-22 17:37 | -18.11037 | 168.10741 | 15609 ft | 393 kts | 214° |
| 2026-04-22 17:38 | -18.13405 | 168.09273 | 16169 ft | 397 kts | 214° |
| 2026-04-22 17:38 | -18.15798 | 168.07788 | 16731 ft | 401 kts | 214° |
| 2026-04-22 17:38 | -18.18212 | 168.06289 | 17281 ft | 405 kts | 215° |
| 2026-04-22 17:38 | -18.20654 | 168.04772 | 17809 ft | 409 kts | 215° |
| 2026-04-22 17:39 | -18.23117 | 168.03241 | 18321 ft | 413 kts | 215° |
| 2026-04-22 17:39 | -18.25565 | 168.01720 | 18771 ft | 416 kts | 215° |
| 2026-04-22 17:39 | -18.30574 | 167.98606 | 19728 ft | 420 kts | 215° |
| 2026-04-22 17:40 | -18.33101 | 167.97034 | 20181 ft | 423 kts | 215° |
| 2026-04-22 17:40 | -18.35648 | 167.95450 | 20628 ft | 426 kts | 215° |
| 2026-04-22 17:40 | -18.38209 | 167.93855 | 21065 ft | 429 kts | 215° |
| 2026-04-22 17:40 | -18.40789 | 167.92249 | 21498 ft | 432 kts | 216° |
| 2026-04-22 17:41 | -18.43394 | 167.90625 | 21900 ft | 435 kts | 216° |
| 2026-04-22 17:41 | -18.46016 | 167.88991 | 22311 ft | 438 kts | 216° |
| 2026-04-22 17:41 | -18.48612 | 167.87373 | 22702 ft | 440 kts | 216° |
| 2026-04-22 17:41 | -18.51265 | 167.85718 | 23095 ft | 443 kts | 216° |
| 2026-04-22 17:42 | -18.53927 | 167.84060 | 23470 ft | 446 kts | 216° |
| 2026-04-22 17:42 | -18.56706 | 167.82530 | 23785 ft | 452 kts | 210° |
| 2026-04-22 17:42 | -18.59583 | 167.81170 | 24134 ft | 454 kts | 209° |
| 2026-04-22 17:42 | -18.62497 | 167.79861 | 24492 ft | 455 kts | 208° |
| 2026-04-22 17:43 | -18.65424 | 167.78560 | 24824 ft | 457 kts | 208° |
| 2026-04-22 17:43 | -18.68350 | 167.77251 | 25148 ft | 458 kts | 208° |
| 2026-04-22 17:43 | -18.71243 | 167.75941 | 25460 ft | 459 kts | 209° |
| 2026-04-22 17:43 | -18.74173 | 167.74600 | 25858 ft | 458 kts | 210° |
| 2026-04-22 17:44 | -18.77094 | 167.73255 | 26233 ft | 458 kts | 210° |
| 2026-04-22 17:44 | -18.80017 | 167.71901 | 26517 ft | 460 kts | 210° |
| 2026-04-22 17:44 | -18.82958 | 167.70535 | 26776 ft | 462 kts | 210° |
| 2026-04-22 17:44 | -18.85900 | 167.69167 | 27053 ft | 463 kts | 210° |
| 2026-04-22 17:45 | -18.88859 | 167.67792 | 27350 ft | 464 kts | 210° |
| 2026-04-22 17:45 | -18.91828 | 167.66414 | 27635 ft | 466 kts | 210° |
| 2026-04-22 17:45 | -18.94800 | 167.65033 | 27906 ft | 467 kts | 210° |
| 2026-04-22 17:45 | -18.97742 | 167.63666 | 28158 ft | 468 kts | 210° |
| 2026-04-22 17:46 | -19.00738 | 167.62274 | 28414 ft | 470 kts | 210° |
| 2026-04-22 17:46 | -19.03734 | 167.60881 | 28665 ft | 471 kts | 210° |
| 2026-04-22 17:46 | -19.06742 | 167.59482 | 28951 ft | 472 kts | 210° |
| 2026-04-22 17:46 | -19.09751 | 167.58083 | 29258 ft | 472 kts | 210° |
| 2026-04-22 17:47 | -19.12753 | 167.56687 | 29655 ft | 469 kts | 210° |
| 2026-04-22 17:47 | -19.15738 | 167.55299 | 30097 ft | 466 kts | 210° |
| 2026-04-22 17:47 | -19.18658 | 167.53941 | 30481 ft | 463 kts | 211° |
| 2026-04-22 17:47 | -19.21598 | 167.52571 | 30832 ft | 461 kts | 211° |
| 2026-04-22 17:48 | -19.23585 | 167.51645 | 31039 ft | 461 kts | 211° |
| 2026-04-22 17:48 | -19.27478 | 167.49827 | 31415 ft | 461 kts | 211° |
| 2026-04-22 17:48 | -19.30416 | 167.48455 | 31741 ft | 460 kts | 211° |
| 2026-04-22 17:48 | -19.33347 | 167.47087 | 32085 ft | 459 kts | 211° |
| 2026-04-22 17:49 | -19.36269 | 167.45722 | 32444 ft | 458 kts | 212° |
| 2026-04-22 17:49 | -19.39184 | 167.44361 | 32773 ft | 458 kts | 212° |
| 2026-04-22 17:49 | -19.42095 | 167.42999 | 33102 ft | 457 kts | 212° |
| 2026-04-22 17:49 | -19.45007 | 167.41638 | 33443 ft | 456 kts | 212° |
| 2026-04-22 17:50 | -19.47914 | 167.40278 | 33772 ft | 456 kts | 212° |
| 2026-04-22 17:50 | -19.50774 | 167.38940 | 33997 ft | 457 kts | 212° |
| 2026-04-22 17:50 | -19.53699 | 167.37577 | 33981 ft | 460 kts | 212° |
| 2026-04-22 17:51 | -19.59567 | 167.34862 | 33979 ft | 459 kts | 212° |
| 2026-04-22 17:51 | -19.65411 | 167.32160 | 33989 ft | 457 kts | 212° |
| 2026-04-22 17:52 | -19.71275 | 167.29436 | 34274 ft | 462 kts | 213° |
| 2026-04-22 17:52 | -19.74219 | 167.28069 | 34567 ft | 461 kts | 213° |
| 2026-04-22 17:52 | -19.77153 | 167.26708 | 34892 ft | 459 kts | 213° |
| 2026-04-22 17:52 | -19.80074 | 167.25352 | 35211 ft | 457 kts | 213° |
| 2026-04-22 17:53 | -19.82942 | 167.24020 | 35482 ft | 456 kts | 213° |
| 2026-04-22 17:53 | -19.85861 | 167.22661 | 35720 ft | 456 kts | 213° |
| 2026-04-22 17:53 | -19.88773 | 167.21305 | 35967 ft | 456 kts | 213° |
| 2026-04-22 17:54 | -19.94618 | 167.18578 | 35991 ft | 459 kts | 213° |
| 2026-04-22 17:54 | -20.00414 | 167.15880 | 36020 ft | 455 kts | 214° |
| 2026-04-22 17:55 | -20.05230 | 167.13636 | 36010 ft | 453 kts | 213° |
| 2026-04-22 17:55 | -20.11965 | 167.10493 | 36003 ft | 451 kts | 214° |
| 2026-04-22 17:56 | -20.17707 | 167.07808 | 36005 ft | 450 kts | 214° |
| 2026-04-22 17:56 | -20.23403 | 167.05144 | 36003 ft | 450 kts | 214° |
| 2026-04-22 17:57 | -20.29146 | 167.02454 | 36008 ft | 451 kts | 214° |
| 2026-04-22 17:57 | -20.34910 | 166.99753 | 36018 ft | 453 kts | 214° |
| 2026-04-22 17:58 | -20.40698 | 166.97038 | 35895 ft | 457 kts | 214° |
| 2026-04-22 17:58 | -20.43617 | 166.95667 | 35640 ft | 458 kts | 214° |
| 2026-04-22 17:58 | -20.46527 | 166.94304 | 35402 ft | 456 kts | 214° |
| 2026-04-22 17:58 | -20.49396 | 166.92960 | 35173 ft | 455 kts | 213° |
| 2026-04-22 17:59 | -20.52300 | 166.91597 | 34944 ft | 456 kts | 213° |
| 2026-04-22 17:59 | -20.55207 | 166.90231 | 34715 ft | 457 kts | 213° |
| 2026-04-22 17:59 | -20.58122 | 166.88860 | 34489 ft | 458 kts | 213° |
| 2026-04-22 17:59 | -20.61042 | 166.87487 | 34263 ft | 458 kts | 213° |
| 2026-04-22 18:00 | -20.62978 | 166.86576 | 34119 ft | 458 kts | 213° |
| 2026-04-22 18:00 | -20.66857 | 166.84751 | 33837 ft | 459 kts | 213° |
| 2026-04-22 18:00 | -20.69778 | 166.83376 | 33578 ft | 459 kts | 213° |
| 2026-04-22 18:00 | -20.72700 | 166.82000 | 33324 ft | 458 kts | 213° |
| 2026-04-22 18:01 | -20.75623 | 166.80623 | 33075 ft | 458 kts | 213° |
| 2026-04-22 18:01 | -20.78539 | 166.79249 | 32826 ft | 458 kts | 213° |
| 2026-04-22 18:01 | -20.81449 | 166.77877 | 32119 ft | 458 kts | 213° |
| 2026-04-22 18:01 | -20.84359 | 166.76504 | 31437 ft | 456 kts | 213° |
| 2026-04-22 18:02 | -20.87266 | 166.75132 | 30665 ft | 457 kts | 212° |
| 2026-04-22 18:02 | -20.90167 | 166.73763 | 30094 ft | 453 kts | 212° |
| 2026-04-22 18:02 | -20.93044 | 166.72406 | 29417 ft | 449 kts | 212° |
| 2026-04-22 18:02 | -20.95893 | 166.71062 | 28815 ft | 444 kts | 212° |
| 2026-04-22 18:03 | -20.98704 | 166.69734 | 28244 ft | 439 kts | 212° |
| 2026-04-22 18:03 | -21.01488 | 166.68417 | 27671 ft | 435 kts | 212° |
| 2026-04-22 18:03 | -21.04209 | 166.67129 | 27114 ft | 431 kts | 211° |
| 2026-04-22 18:03 | -21.06948 | 166.65831 | 26562 ft | 428 kts | 211° |
| 2026-04-22 18:04 | -21.09661 | 166.64545 | 26011 ft | 425 kts | 211° |
| 2026-04-22 18:04 | -21.12364 | 166.63263 | 25458 ft | 423 kts | 211° |
| 2026-04-22 18:04 | -21.15058 | 166.61984 | 24886 ft | 421 kts | 211° |
| 2026-04-22 18:04 | -21.17735 | 166.60714 | 24331 ft | 420 kts | 210° |
| 2026-04-22 18:05 | -21.20406 | 166.59447 | 23771 ft | 419 kts | 210° |
| 2026-04-22 18:05 | -21.22963 | 166.58008 | 23121 ft | 409 kts | 223° |
| 2026-04-22 18:05 | -21.24930 | 166.55941 | 22553 ft | 395 kts | 237° |
| 2026-04-22 18:05 | -21.26568 | 166.53599 | 22004 ft | 391 kts | 239° |
| 2026-04-22 18:06 | -21.28162 | 166.51245 | 21434 ft | 388 kts | 239° |
| 2026-04-22 18:06 | -21.29740 | 166.48901 | 20889 ft | 386 kts | 239° |
| 2026-04-22 18:06 | -21.31317 | 166.46569 | 20350 ft | 384 kts | 239° |
| 2026-04-22 18:06 | -21.32865 | 166.44294 | 19822 ft | 382 kts | 239° |
| 2026-04-22 18:07 | -21.33926 | 166.42742 | 19451 ft | 381 kts | 239° |
| 2026-04-22 18:07 | -21.36004 | 166.39712 | 18735 ft | 380 kts | 239° |
| 2026-04-22 18:07 | -21.37566 | 166.37442 | 18172 ft | 374 kts | 239° |
| 2026-04-22 18:07 | -21.39112 | 166.35196 | 17612 ft | 372 kts | 239° |
| 2026-04-22 18:08 | -21.40646 | 166.32967 | 17074 ft | 370 kts | 238° |
| 2026-04-22 18:08 | -21.42169 | 166.30753 | 16541 ft | 366 kts | 238° |
| 2026-04-22 18:08 | -21.43660 | 166.28585 | 16038 ft | 365 kts | 238° |
| 2026-04-22 18:08 | -21.45161 | 166.26400 | 15527 ft | 363 kts | 238° |
| 2026-04-22 18:09 | -21.46656 | 166.24224 | 15020 ft | 361 kts | 238° |
| 2026-04-22 18:09 | -21.48148 | 166.22052 | 14485 ft | 361 kts | 237° |
| 2026-04-22 18:09 | -21.49613 | 166.19920 | 13975 ft | 350 kts | 237° |
| 2026-04-22 18:09 | -21.51050 | 166.17829 | 13441 ft | 347 kts | 237° |
| 2026-04-22 18:10 | -21.52482 | 166.15740 | 12918 ft | 346 kts | 237° |
| 2026-04-22 18:10 | -21.53911 | 166.13655 | 12410 ft | 346 kts | 237° |
| 2026-04-22 18:10 | -21.55336 | 166.11572 | 11895 ft | 344 kts | 236° |
| 2026-04-22 18:10 | -21.56739 | 166.09525 | 11388 ft | 337 kts | 236° |
| 2026-04-22 18:11 | -21.58133 | 166.07491 | 10907 ft | 338 kts | 236° |
| 2026-04-22 18:11 | -21.59497 | 166.05502 | 10725 ft | 322 kts | 236° |
| 2026-04-22 18:11 | -21.60779 | 166.03633 | 10583 ft | 309 kts | 236° |
| 2026-04-22 18:11 | -21.62036 | 166.01795 | 10452 ft | 301 kts | 236° |
| 2026-04-22 18:12 | -21.63266 | 165.99997 | 10321 ft | 294 kts | 236° |
| 2026-04-22 18:12 | -21.64460 | 165.98250 | 10186 ft | 286 kts | 236° |
| 2026-04-22 18:12 | -21.65248 | 165.97099 | 10107 ft | 279 kts | 236° |
| 2026-04-22 18:12 | -21.66741 | 165.94914 | 9849 ft | 273 kts | 236° |
| 2026-04-22 18:13 | -21.67872 | 165.93261 | 9551 ft | 274 kts | 234° |
| 2026-04-22 18:13 | -21.69122 | 165.91701 | 9260 ft | 277 kts | 229° |
| 2026-04-22 18:13 | -21.70479 | 165.90222 | 8968 ft | 278 kts | 227° |
| 2026-04-22 18:13 | -21.71871 | 165.88807 | 8673 ft | 279 kts | 225° |
| 2026-04-22 18:14 | -21.73295 | 165.87387 | 8383 ft | 280 kts | 224° |
| 2026-04-22 18:14 | -21.74776 | 165.86025 | 8088 ft | 281 kts | 221° |
| 2026-04-22 18:14 | -21.76466 | 165.84971 | 7772 ft | 285 kts | 198° |
| 2026-04-22 18:14 | -21.78444 | 165.84851 | 7490 ft | 289 kts | 170° |
| 2026-04-22 18:15 | -21.80289 | 165.85758 | 6925 ft | 302 kts | 138° |
| 2026-04-22 18:15 | -21.81591 | 165.87488 | 6854 ft | 292 kts | 124° |
| 2026-04-22 18:15 | -21.82707 | 165.89332 | 6440 ft | 295 kts | 123° |
| 2026-04-22 18:15 | -21.83814 | 165.91200 | 6036 ft | 296 kts | 123° |
| 2026-04-22 18:16 | -21.84919 | 165.93045 | 5653 ft | 296 kts | 124° |
| 2026-04-22 18:16 | -21.86042 | 165.94892 | 5269 ft | 294 kts | 124° |
| 2026-04-22 18:16 | -21.87150 | 165.96702 | 4880 ft | 284 kts | 124° |
| 2026-04-22 18:16 | -21.88221 | 165.98448 | 4489 ft | 275 kts | 124° |
| 2026-04-22 18:17 | -21.89255 | 166.00137 | 4127 ft | 266 kts | 123° |
| 2026-04-22 18:17 | -21.90253 | 166.01777 | 3792 ft | 258 kts | 123° |
| 2026-04-22 18:17 | -21.91233 | 166.03384 | 3628 ft | 254 kts | 123° |
| 2026-04-22 18:17 | -21.92240 | 166.04938 | 3222 ft | 256 kts | 124° |
| 2026-04-22 18:18 | -21.93195 | 166.06512 | 2889 ft | 244 kts | 122° |
| 2026-04-22 18:18 | -21.94047 | 166.08032 | 2559 ft | 230 kts | 121° |
| 2026-04-22 18:18 | -21.94849 | 166.09478 | 2271 ft | 220 kts | 121° |
| 2026-04-22 18:18 | -21.95617 | 166.10855 | 1975 ft | 206 kts | 121° |
| 2026-04-22 18:19 | -21.96094 | 166.11707 | 1809 ft | 194 kts | 121° |
| 2026-04-22 18:19 | -21.96761 | 166.12900 | 1542 ft | 178 kts | 121° |
| 2026-04-22 18:19 | -21.97549 | 166.14311 | 1254 ft | 156 kts | 121° |
| 2026-04-22 18:19 | -21.98086 | 166.15269 | 1054 ft | 143 kts | 122° |
| 2026-04-22 18:20 | -21.98427 | 166.15879 | 944 ft | 139 kts | 120° |
| 2026-04-22 18:20 | -21.98921 | 166.16763 | 794 ft | 136 kts | 122° |
| 2026-04-22 18:20 | -21.99419 | 166.17652 | 603 ft | 138 kts | 120° |
| 2026-04-22 18:20 | -21.99901 | 166.18529 | 443 ft | 134 kts | 120° |
| 2026-04-22 18:21 | -22.00376 | 166.19361 | 265 ft | 130 kts | 118° |
| 2026-04-22 18:21 | -22.00850 | 166.20223 | 96 ft | 135 kts | 117° |
| 2026-04-22 18:21 | -22.01309 | 166.21037 | 58 ft | 117 kts | 120° |
| 2026-04-22 18:21 | -22.01566 | 166.21499 | 55 ft | 30 kts | 121° |
| 2026-04-22 18:22 | -22.01612 | 166.21622 | 51 ft | 10 kts | 64° |
| 2026-04-22 18:22 | -22.01604 | 166.21631 | 54 ft | 1 kts | 43° |
| 2026-04-22 18:22 | -22.01597 | 166.21638 | 53 ft | 1 kts | 43° |
| 2026-04-22 18:22 | -22.01582 | 166.21650 | 56 ft | 5 kts | 35° |
| 2026-04-22 18:23 | -22.01572 | 166.21657 | 57 ft | 0 kts | 30° |
| 2026-04-22 18:23 | -22.01561 | 166.21663 | 61 ft | 5 kts | 25° |
| 2026-04-22 18:23 | -22.01508 | 166.21681 | 58 ft | 11 kts | 28° |
| 2026-04-22 18:24 | -22.01454 | 166.21714 | 61 ft | 0 kts | 27° |
| 2026-04-22 18:24 | -22.01447 | 166.21718 | 56 ft | 0 kts | 27° |